SILO ALERT LOG


Silo ID Alert Type Alert Message Silo Type Points Depth (mm) Strength Temperature (°C) Humidity (%) Height (mm) Volume (㎥) Weight (t) Flag Time
DJSAD01 Humidity 습도센서 측정값이 80% 초과 461 1502 7415 2.9 86.4 7277 301.281 190.47 0 2024-01-11 18:39:40.000
DJSAD02 Humidity 습도센서 측정값이 80% 초과 382 1142 4361 3.5 86.7 7637 316.181 199.89 11 2024-01-11 18:39:39.000
DJHNR01 Humidity 습도센서 측정값이 80% 초과 호퍼 471 4267 4667 8.6 99.9 11112 475.791 300.795 13 2024-01-11 18:39:33.000
DJSAD12 Humidity 습도센서 측정값이 80% 초과 0 7700 0 6.6 85.4 -120 -17.075 0 31 2024-01-11 18:39:33.000
DJDJD04 Humidity 습도센서 측정값이 80% 초과 275 4210 4407 5.5 81.1 3469 420.299 265.713 11 2024-01-11 18:39:33.000
DJSSD04 Temperature 온도센서 상태 이상 0 8200 0 -999 -999 -120 -16.702 0 31 2024-01-11 18:39:33.000
DJSSD01 Humidity 습도센서 측정값이 80% 초과 795 2570 4650 6.6 82.9 5509 766.76 484.745 0 2024-01-11 18:39:32.000
DJSSD05 Temperature 온도센서 측정값이 0도 미만 839 2552 4870 -45.4 43.7 5527 769.253 486.322 0 2024-01-11 18:39:32.000
DJSSD09 Temperature 온도센서 측정값이 0도 미만 118 2904 2798 -45.4 0 4775 664.657 420.196 11 2024-01-11 18:39:31.000
DJSAD18 Humidity 습도센서 측정값이 80% 초과 116 1419 5840 6 80.8 6160 613.441 387.817 11 2024-01-11 18:39:30.000
DJSAD07 Humidity 습도센서 측정값이 80% 초과 271 2356 3224 4.9 84 5223 743.195 469.848 11 2024-01-11 18:39:30.000
DJHNR03 Temperature 온도센서 상태 이상 호퍼 0 15500 0 -999 -999 -119 0 0 31 2024-01-11 18:39:24.000
DJSSD12 Temperature 온도센서 상태 이상 호퍼 0 11350 0 -999 -999 -120 0 0 31 2024-01-11 18:39:24.000
DJHNR12 Humidity 습도센서 측정값이 80% 초과 호퍼 0 10500 0 4.9 81.6 -120 0 0 31 2024-01-11 18:39:23.000
DJSAD01 Humidity 습도센서 측정값이 80% 초과 474 1531 7379 2.9 86.3 7248 300.077 189.709 0 2024-01-11 17:39:40.000
DJSAD08 Humidity 습도센서 측정값이 80% 초과 280 1906 4210 12.4 82 5673 807.286 510.366 29 2024-01-11 17:39:39.000
DJSAD03 Humidity 습도센서 측정값이 80% 초과 459 1482 5749 4.4 84.5 7297 302.098 190.986 0 2024-01-11 17:39:39.000
DJSAD02 Humidity 습도센서 측정값이 80% 초과 390 1132 4357 3.5 86.7 7647 316.573 200.138 11 2024-01-11 17:39:38.000
DJSSD04 Temperature 온도센서 상태 이상 0 8200 0 -999 -999 -120 -16.702 0 31 2024-01-11 17:39:33.000
DJSSD05 Temperature 온도센서 측정값이 0도 미만 841 2550 4893 -45.4 43.7 5529 769.644 486.569 0 2024-01-11 17:39:33.000

[첫 페이지] [9991] [9992] [9993] [9994] 9995 [9996] [9997] [9998] [9999] [마지막 페이지]